createdAt,value
2023-07-09T00:00:47.854Z,22.50
2023-07-09T00:01:47.903Z,22.36
2023-07-09T00:02:47.911Z,22.29
2023-07-09T00:03:47.916Z,22.43
2023-07-09T00:04:47.881Z,22.23
2023-07-09T00:05:48.205Z,22.50
2023-07-09T00:06:47.872Z,22.73
2023-07-09T00:07:47.856Z,22.83
2023-07-09T00:08:47.858Z,22.76
2023-07-09T00:09:47.844Z,22.98
2023-07-09T00:10:47.828Z,23.10
2023-07-09T00:11:47.836Z,23.18
2023-07-09T00:12:47.852Z,23.22
2023-07-09T00:13:47.910Z,23.23
2023-07-09T00:14:47.847Z,23.29
2023-07-09T00:15:47.907Z,23.32
2023-07-09T00:16:48.941Z,23.10
2023-07-09T00:17:47.884Z,22.94
2023-07-09T00:18:47.833Z,22.80
2023-07-09T00:19:47.823Z,22.76
2023-07-09T00:20:47.816Z,22.55
2023-07-09T00:21:47.804Z,22.38
2023-07-09T00:22:47.803Z,22.50
2023-07-09T00:23:47.854Z,22.36
2023-07-09T00:24:47.914Z,22.27
2023-07-09T00:25:47.951Z,22.22
2023-07-09T00:26:48.032Z,22.27
2023-07-09T00:27:48.065Z,22.52
2023-07-09T00:28:48.121Z,22.62
2023-07-09T00:29:48.179Z,22.67
2023-07-09T00:30:48.269Z,22.64
2023-07-09T00:31:48.338Z,22.63
2023-07-09T00:32:48.383Z,22.53
2023-07-09T00:33:48.384Z,22.31
2023-07-09T00:34:48.438Z,22.28
2023-07-09T00:35:48.486Z,22.55
2023-07-09T00:36:48.551Z,22.70
2023-07-09T00:37:48.592Z,22.87
2023-07-09T00:38:48.665Z,22.87
2023-07-09T00:39:48.731Z,22.74
2023-07-09T00:40:48.774Z,22.73
2023-07-09T00:41:48.826Z,22.48
2023-07-09T00:42:48.886Z,22.34
2023-07-09T00:43:48.958Z,22.48
2023-07-09T00:44:48.993Z,22.64
2023-07-09T00:45:51.024Z,22.82
2023-07-09T00:46:49.069Z,22.93
2023-07-09T00:47:49.088Z,23.00
2023-07-09T00:48:49.050Z,23.11
2023-07-09T00:49:49.090Z,23.14
2023-07-09T00:50:49.059Z,23.19
2023-07-09T00:51:49.111Z,23.22
2023-07-09T00:52:49.059Z,23.19
2023-07-09T00:53:49.062Z,23.23
2023-07-09T00:54:49.070Z,23.29
2023-07-09T00:55:49.070Z,23.32
2023-07-09T00:56:49.068Z,23.37
2023-07-09T00:57:49.072Z,23.35
2023-07-09T00:58:49.121Z,23.41
2023-07-09T00:59:49.095Z,23.25
2023-07-09T01:00:49.103Z,22.90
2023-07-09T01:01:49.203Z,22.62
2023-07-09T01:02:49.184Z,22.45
2023-07-09T01:03:49.096Z,22.46
2023-07-09T01:04:49.200Z,22.58
2023-07-09T01:05:49.096Z,22.38
2023-07-09T01:06:49.100Z,22.55
2023-07-09T01:07:49.107Z,22.56
2023-07-09T01:08:49.105Z,22.00
2023-07-09T01:09:49.108Z,21.97
2023-07-09T01:10:49.113Z,22.09
2023-07-09T01:11:49.119Z,22.22
2023-07-09T01:12:49.148Z,22.32
2023-07-09T01:13:49.240Z,22.45
2023-07-09T01:14:49.175Z,22.59
2023-07-09T01:15:49.330Z,22.67
2023-07-09T01:16:49.218Z,22.76
2023-07-09T01:17:49.281Z,22.84
2023-07-09T01:18:49.282Z,22.87
2023-07-09T01:19:49.272Z,22.94
2023-07-09T01:20:49.280Z,22.98
2023-07-09T01:21:49.289Z,23.03
2023-07-09T01:22:49.303Z,23.07
2023-07-09T01:23:49.372Z,23.08
2023-07-09T01:24:49.361Z,23.08
2023-07-09T01:25:49.412Z,23.05
2023-07-09T01:26:49.454Z,23.10
2023-07-09T01:27:49.509Z,22.34
2023-07-09T01:28:49.548Z,21.93
2023-07-09T01:29:49.610Z,22.23
2023-07-09T01:30:49.644Z,22.25
2023-07-09T01:31:49.684Z,22.12
2023-07-09T01:32:49.822Z,22.11
2023-07-09T01:33:50.288Z,22.09
2023-07-09T01:34:49.785Z,22.05
2023-07-09T01:35:49.792Z,22.04
2023-07-09T01:36:49.823Z,22.08
2023-07-09T01:37:49.835Z,22.18
2023-07-09T01:38:49.880Z,22.35
2023-07-09T01:39:49.907Z,22.45
2023-07-09T01:40:49.954Z,22.52
2023-07-09T01:41:49.989Z,22.62
2023-07-09T01:42:50.036Z,22.70
2023-07-09T01:43:50.088Z,22.74
2023-07-09T01:44:50.133Z,22.67
2023-07-09T01:45:50.171Z,22.77
2023-07-09T01:46:50.256Z,22.71
2023-07-09T01:47:50.366Z,22.73
2023-07-09T01:48:50.289Z,22.77
2023-07-09T01:49:50.336Z,22.80
2023-07-09T01:50:50.396Z,22.84
2023-07-09T01:51:50.407Z,22.74
2023-07-09T01:52:50.428Z,22.83
2023-07-09T01:53:50.449Z,22.84
2023-07-09T01:54:50.618Z,22.83
2023-07-09T01:55:50.524Z,22.90
2023-07-09T01:56:50.561Z,22.90
2023-07-09T01:57:50.584Z,22.73
2023-07-09T01:58:51.035Z,22.43
2023-07-09T01:59:50.642Z,21.93
2023-07-09T02:00:50.723Z,22.07
2023-07-09T02:01:50.673Z,21.88
2023-07-09T02:02:50.700Z,21.78
2023-07-09T02:03:50.724Z,21.46
2023-07-09T02:04:50.777Z,21.39
2023-07-09T02:05:50.803Z,20.70
2023-07-09T02:06:50.926Z,20.97
2023-07-09T02:07:50.869Z,21.19
2023-07-09T02:08:50.894Z,21.33
2023-07-09T02:09:51.860Z,21.35
2023-07-09T02:10:51.043Z,21.49
2023-07-09T02:11:51.125Z,21.39
2023-07-09T02:12:51.195Z,21.21
2023-07-09T02:13:51.314Z,21.56
2023-07-09T02:14:51.325Z,21.73
2023-07-09T02:15:51.397Z,21.84
2023-07-09T02:16:51.512Z,21.98
2023-07-09T02:17:51.565Z,21.76
2023-07-09T02:18:51.623Z,21.49
2023-07-09T02:19:51.662Z,21.74
2023-07-09T02:20:51.726Z,21.70
2023-07-09T02:21:51.808Z,21.38
2023-07-09T02:22:51.872Z,21.25
2023-07-09T02:23:51.887Z,21.31
2023-07-09T02:24:51.940Z,21.33
2023-07-09T02:25:51.987Z,21.45
2023-07-09T02:26:52.080Z,21.33
2023-07-09T02:27:52.051Z,21.21
2023-07-09T02:28:52.061Z,20.91
2023-07-09T02:29:52.064Z,21.04
2023-07-09T02:30:52.108Z,21.11
2023-07-09T02:31:52.099Z,21.15
2023-07-09T02:32:52.190Z,21.35
2023-07-09T02:33:52.117Z,21.45
2023-07-09T02:34:52.136Z,21.28
2023-07-09T02:35:52.145Z,21.25
2023-07-09T02:36:52.137Z,21.32
2023-07-09T02:37:52.167Z,21.24
2023-07-09T02:38:52.812Z,21.08
2023-07-09T02:39:52.150Z,20.86
2023-07-09T02:40:52.158Z,20.95
2023-07-09T02:41:52.198Z,20.99
2023-07-09T02:42:52.180Z,20.80
2023-07-09T02:43:52.181Z,21.04
2023-07-09T02:44:52.192Z,21.16
2023-07-09T02:45:52.196Z,21.11
2023-07-09T02:46:52.222Z,21.22
2023-07-09T02:47:52.349Z,21.46
2023-07-09T02:48:52.215Z,21.60
2023-07-09T02:49:52.237Z,21.72
2023-07-09T02:50:52.228Z,21.81
2023-07-09T02:51:52.269Z,21.94
2023-07-09T02:52:52.332Z,21.97
2023-07-09T02:53:52.338Z,22.04
2023-07-09T02:54:52.398Z,22.09
2023-07-09T02:55:52.448Z,21.98
2023-07-09T02:56:52.534Z,22.11
2023-07-09T02:57:52.617Z,22.15
2023-07-09T02:58:52.703Z,22.19
2023-07-09T02:59:52.768Z,22.27
2023-07-09T03:00:52.844Z,22.31
2023-07-09T03:01:52.922Z,22.28
2023-07-09T03:02:53.081Z,22.34
2023-07-09T03:03:53.078Z,22.35
2023-07-09T03:04:53.148Z,22.38
2023-07-09T03:05:53.241Z,22.35
2023-07-09T03:06:53.319Z,22.29
2023-07-09T03:07:53.402Z,22.32
2023-07-09T03:08:53.475Z,22.36
2023-07-09T03:09:53.545Z,22.35
2023-07-09T03:10:53.662Z,22.38
2023-07-09T03:11:53.698Z,22.38
2023-07-09T03:12:53.779Z,22.43
2023-07-09T03:13:53.888Z,22.45
2023-07-09T03:14:53.934Z,22.45
2023-07-09T03:15:53.989Z,22.43
2023-07-09T03:16:54.178Z,22.45
2023-07-09T03:17:54.196Z,22.43
2023-07-09T03:18:54.213Z,22.43
2023-07-09T03:19:54.320Z,22.38
2023-07-09T03:20:54.374Z,22.42
2023-07-09T03:21:54.448Z,22.41
2023-07-09T03:22:54.487Z,22.39
2023-07-09T03:23:54.543Z,22.39
2023-07-09T03:24:54.616Z,22.39
2023-07-09T03:25:54.665Z,22.38
2023-07-09T03:26:54.769Z,22.39
2023-07-09T03:27:54.810Z,22.35
2023-07-09T03:28:54.892Z,22.36
2023-07-09T03:29:54.966Z,22.34
2023-07-09T03:30:55.030Z,22.12
2023-07-09T03:31:55.181Z,22.14
2023-07-09T03:32:55.274Z,22.19
2023-07-09T03:33:55.304Z,22.21
2023-07-09T03:34:55.384Z,22.21
2023-07-09T03:35:55.472Z,22.14
2023-07-09T03:36:55.527Z,22.18
2023-07-09T03:37:55.570Z,21.76
2023-07-09T03:38:55.622Z,22.01
2023-07-09T03:39:55.674Z,22.04
2023-07-09T03:40:55.727Z,22.08
2023-07-09T03:41:55.802Z,21.90
2023-07-09T03:42:55.901Z,22.01
2023-07-09T03:43:55.964Z,22.08
2023-07-09T03:44:56.036Z,22.14
2023-07-09T03:45:56.112Z,22.04
2023-07-09T03:46:56.209Z,22.08
2023-07-09T03:47:56.286Z,22.14
2023-07-09T03:48:56.338Z,22.14
2023-07-09T03:49:56.350Z,22.09
2023-07-09T03:50:56.413Z,22.18
2023-07-09T03:51:56.487Z,22.18
2023-07-09T03:52:56.536Z,22.21
2023-07-09T03:53:56.605Z,22.21
2023-07-09T03:54:56.672Z,22.19
2023-07-09T03:55:56.758Z,22.25
2023-07-09T03:56:56.827Z,22.07
2023-07-09T03:57:56.910Z,22.12
2023-07-09T03:58:57.054Z,22.19
2023-07-09T03:59:57.068Z,22.21
2023-07-09T04:00:57.161Z,22.23
2023-07-09T04:01:57.381Z,22.23
2023-07-09T04:02:57.374Z,22.28
2023-07-09T04:03:57.439Z,22.27
2023-07-09T04:04:57.474Z,22.31
2023-07-09T04:05:57.554Z,22.36
2023-07-09T04:06:57.633Z,22.35
2023-07-09T04:07:57.711Z,22.39
2023-07-09T04:08:57.776Z,22.45
2023-07-09T04:09:57.842Z,22.49
2023-07-09T04:10:57.893Z,22.55
2023-07-09T04:11:57.936Z,22.58
2023-07-09T04:12:57.996Z,22.66
2023-07-09T04:13:58.072Z,22.73
2023-07-09T04:14:58.088Z,22.82
2023-07-09T04:15:58.178Z,22.89
2023-07-09T04:16:58.107Z,22.97
2023-07-09T04:17:58.176Z,23.05
2023-07-09T04:18:58.109Z,23.21
2023-07-09T04:19:58.131Z,23.33
2023-07-09T04:20:58.197Z,23.46
2023-07-09T04:21:58.232Z,23.62
2023-07-09T04:22:58.285Z,23.81
2023-07-09T04:23:58.299Z,24.00
2023-07-09T04:24:58.300Z,24.20
2023-07-09T04:25:58.279Z,24.40
2023-07-09T04:26:58.285Z,24.60
2023-07-09T04:27:58.317Z,24.86
2023-07-09T04:28:58.341Z,25.10
2023-07-09T04:29:58.357Z,25.32
2023-07-09T04:30:58.369Z,25.58
2023-07-09T04:31:58.414Z,25.80
2023-07-09T04:32:58.332Z,26.01
2023-07-09T04:33:58.301Z,26.25
2023-07-09T04:34:58.315Z,26.51
2023-07-09T04:35:58.318Z,26.71
2023-07-09T04:36:58.345Z,26.97
2023-07-09T04:37:58.360Z,27.15
2023-07-09T04:38:58.359Z,27.41
2023-07-09T04:39:58.342Z,27.56
2023-07-09T04:40:58.324Z,27.75
2023-07-09T04:41:58.328Z,27.88
2023-07-09T04:42:58.280Z,27.97
2023-07-09T04:43:58.255Z,28.17
2023-07-09T04:44:58.285Z,28.27
2023-07-09T04:45:58.269Z,28.44
2023-07-09T04:46:58.168Z,28.61
2023-07-09T04:47:58.154Z,28.73
2023-07-09T04:48:58.116Z,28.90
2023-07-09T04:49:58.116Z,29.00
2023-07-09T04:50:58.094Z,29.02
2023-07-09T04:51:58.057Z,29.18
2023-07-09T04:52:58.030Z,29.31
2023-07-09T04:53:58.015Z,29.44
2023-07-09T04:54:58.007Z,29.57
2023-07-09T04:55:58.960Z,29.68
2023-07-09T04:56:57.932Z,29.78
2023-07-09T04:57:57.927Z,29.78
2023-07-09T04:58:57.902Z,29.90
2023-07-09T04:59:57.878Z,29.90
2023-07-09T05:00:57.901Z,29.99
2023-07-09T05:01:57.795Z,29.99
2023-07-09T05:02:57.866Z,30.00
2023-07-09T05:03:57.826Z,30.00
2023-07-09T05:04:57.771Z,29.99
2023-07-09T05:05:57.753Z,29.97
2023-07-09T05:06:57.755Z,29.99
2023-07-09T05:07:57.747Z,29.93
2023-07-09T05:08:57.748Z,29.87
2023-07-09T05:09:57.743Z,29.83
2023-07-09T05:10:57.707Z,29.82
2023-07-09T05:11:57.662Z,29.73
2023-07-09T05:12:57.674Z,29.71
2023-07-09T05:13:57.702Z,29.57
2023-07-09T05:14:57.694Z,29.48
2023-07-09T05:15:57.701Z,29.41
2023-07-09T05:16:57.624Z,29.34
2023-07-09T05:17:57.698Z,29.31
2023-07-09T05:18:57.644Z,29.31
2023-07-09T05:19:57.554Z,29.21
2023-07-09T05:20:57.659Z,29.21
2023-07-09T05:21:57.464Z,29.14
2023-07-09T05:22:57.422Z,29.11
2023-07-09T05:23:57.448Z,29.03
2023-07-09T05:24:57.359Z,28.96
2023-07-09T05:25:57.326Z,28.92
2023-07-09T05:26:57.313Z,28.87
2023-07-09T05:27:57.305Z,28.78
2023-07-09T05:28:57.314Z,28.72
2023-07-09T05:29:57.351Z,28.65
2023-07-09T05:30:57.405Z,28.58
2023-07-09T05:31:57.370Z,28.52
2023-07-09T05:32:57.420Z,28.42
2023-07-09T05:33:57.410Z,28.33
2023-07-09T05:34:57.415Z,28.24
2023-07-09T05:35:57.408Z,28.13
2023-07-09T05:36:59.657Z,28.11
2023-07-09T05:37:57.363Z,28.03
2023-07-09T05:38:57.303Z,27.95
2023-07-09T05:39:57.286Z,27.83
2023-07-09T05:40:57.222Z,27.82
2023-07-09T05:41:57.501Z,27.73
2023-07-09T05:42:57.152Z,27.68
2023-07-09T05:43:57.122Z,27.63
2023-07-09T05:44:57.079Z,27.59
2023-07-09T05:45:57.044Z,27.49
2023-07-09T05:46:57.038Z,27.46
2023-07-09T05:47:56.980Z,27.48
2023-07-09T05:48:56.917Z,27.40
2023-07-09T05:49:56.881Z,27.38
2023-07-09T05:50:56.858Z,27.34
2023-07-09T05:51:56.787Z,27.14
2023-07-09T05:52:56.729Z,26.94
2023-07-09T05:53:56.688Z,27.01
2023-07-09T05:54:56.676Z,27.06
2023-07-09T05:55:56.661Z,27.06
2023-07-09T05:56:56.724Z,27.10
2023-07-09T05:57:56.712Z,26.90
2023-07-09T05:58:56.719Z,26.93
2023-07-09T05:59:56.731Z,26.90
2023-07-09T06:00:56.785Z,26.97
2023-07-09T06:01:56.755Z,26.86
2023-07-09T06:02:57.017Z,26.94
2023-07-09T06:03:56.895Z,26.97
2023-07-09T06:04:56.764Z,26.99
2023-07-09T06:05:56.738Z,26.97
2023-07-09T06:06:56.739Z,26.66
2023-07-09T06:07:56.716Z,26.66
2023-07-09T06:08:56.744Z,26.52
2023-07-09T06:09:56.763Z,26.28
2023-07-09T06:10:56.787Z,26.48
2023-07-09T06:11:56.790Z,26.55
2023-07-09T06:12:56.807Z,26.62
2023-07-09T06:13:57.031Z,26.66
2023-07-09T06:14:56.800Z,26.62
2023-07-09T06:15:56.816Z,26.72
2023-07-09T06:16:56.905Z,26.72
2023-07-09T06:17:56.839Z,26.60
2023-07-09T06:18:56.819Z,26.66
2023-07-09T06:19:59.427Z,26.73
2023-07-09T06:20:56.835Z,26.80
2023-07-09T06:21:56.751Z,26.80
2023-07-09T06:22:56.714Z,26.65
2023-07-09T06:23:56.645Z,26.72
2023-07-09T06:24:56.597Z,26.75
2023-07-09T06:25:56.547Z,26.86
2023-07-09T06:26:56.521Z,26.91
2023-07-09T06:27:56.446Z,27.00
2023-07-09T06:28:59.692Z,27.03
2023-07-09T06:29:56.350Z,27.07
2023-07-09T06:30:56.378Z,27.14
2023-07-09T06:31:56.288Z,27.18
2023-07-09T06:32:56.308Z,27.25
2023-07-09T06:33:56.196Z,27.27
2023-07-09T06:34:56.143Z,27.30
2023-07-09T06:35:56.125Z,27.31
2023-07-09T06:36:56.057Z,27.27
2023-07-09T06:37:56.004Z,27.27
2023-07-09T06:38:55.982Z,27.41
2023-07-09T06:39:55.908Z,27.40
2023-07-09T06:40:55.878Z,27.33
2023-07-09T06:41:55.823Z,27.33
2023-07-09T06:42:55.769Z,27.24
2023-07-09T06:43:55.713Z,27.11
2023-07-09T06:44:55.660Z,27.35
2023-07-09T06:45:55.610Z,27.33
2023-07-09T06:46:55.610Z,27.34
2023-07-09T06:47:55.559Z,27.25
2023-07-09T06:48:55.470Z,27.41
2023-07-09T06:49:55.419Z,27.55
2023-07-09T06:50:55.356Z,27.59
2023-07-09T06:51:55.304Z,27.63
2023-07-09T06:52:55.317Z,27.65
2023-07-09T06:53:55.306Z,27.42
2023-07-09T06:54:55.320Z,27.69
2023-07-09T06:55:55.281Z,27.79
2023-07-09T06:56:55.257Z,27.82
2023-07-09T06:57:55.216Z,27.85
2023-07-09T06:58:55.181Z,28.00
2023-07-09T06:59:55.139Z,28.08
2023-07-09T07:00:55.103Z,28.13
2023-07-09T07:01:55.133Z,28.23
2023-07-09T07:02:55.056Z,28.35
2023-07-09T07:03:55.012Z,28.30
2023-07-09T07:04:54.927Z,28.35
2023-07-09T07:05:54.950Z,28.48
2023-07-09T07:06:54.906Z,28.35
2023-07-09T07:07:54.903Z,28.50
2023-07-09T07:08:54.885Z,28.68
2023-07-09T07:09:54.883Z,28.73
2023-07-09T07:10:54.909Z,28.83
2023-07-09T07:11:54.906Z,28.76
2023-07-09T07:12:54.849Z,28.56
2023-07-09T07:13:54.868Z,28.72
2023-07-09T07:14:54.777Z,28.75
2023-07-09T07:15:54.723Z,28.90
2023-07-09T07:16:54.750Z,29.02
2023-07-09T07:17:54.675Z,29.11
2023-07-09T07:18:54.607Z,29.00
2023-07-09T07:19:54.548Z,29.21
2023-07-09T07:20:54.483Z,29.31
2023-07-09T07:21:54.434Z,29.45
2023-07-09T07:22:54.388Z,29.35
2023-07-09T07:23:54.311Z,29.57
2023-07-09T07:24:54.243Z,29.64
2023-07-09T07:25:54.182Z,29.73
2023-07-09T07:26:54.155Z,29.71
2023-07-09T07:27:54.103Z,29.86
2023-07-09T07:28:57.696Z,29.97
2023-07-09T07:29:53.905Z,30.12
2023-07-09T07:30:53.837Z,30.21
2023-07-09T07:31:53.778Z,30.23
2023-07-09T07:32:53.736Z,30.32
2023-07-09T07:33:53.589Z,30.45
2023-07-09T07:34:53.504Z,30.57
2023-07-09T07:36:20.356Z,30.58
2023-07-09T07:36:53.351Z,30.76
2023-07-09T07:37:53.311Z,30.86
2023-07-09T07:38:53.192Z,30.69
2023-07-09T07:39:53.140Z,30.89
2023-07-09T07:40:53.017Z,31.03
2023-07-09T07:41:52.936Z,31.16
2023-07-09T07:42:52.859Z,31.31
2023-07-09T07:43:52.764Z,31.40
2023-07-09T07:44:52.646Z,31.58
2023-07-09T07:45:52.564Z,31.68
2023-07-09T07:46:54.283Z,31.85
2023-07-09T07:47:52.397Z,31.99
2023-07-09T07:48:52.236Z,32.13
2023-07-09T07:49:52.133Z,32.29
2023-07-09T07:50:52.028Z,32.47
2023-07-09T07:51:51.925Z,32.54
2023-07-09T07:52:51.827Z,32.72
2023-07-09T07:53:51.703Z,32.88
2023-07-09T07:54:51.594Z,33.01
2023-07-09T07:55:51.495Z,33.09
2023-07-09T07:56:51.358Z,33.27
2023-07-09T07:57:51.252Z,33.40
2023-07-09T07:58:51.157Z,33.33
2023-07-09T07:59:51.015Z,33.60
2023-07-09T08:00:50.900Z,33.68
2023-07-09T08:01:50.859Z,33.89
2023-07-09T08:02:50.660Z,34.14
2023-07-09T08:03:50.643Z,33.94
2023-07-09T08:04:50.436Z,34.22
2023-07-09T08:05:50.376Z,34.29
2023-07-09T08:06:50.298Z,34.46
2023-07-09T08:07:50.227Z,34.60
2023-07-09T08:08:50.133Z,34.84
2023-07-09T08:09:50.012Z,35.00
2023-07-09T08:10:49.882Z,35.15
2023-07-09T08:11:49.756Z,35.35
2023-07-09T08:12:49.669Z,35.55
2023-07-09T08:13:49.672Z,35.72
2023-07-09T08:14:49.556Z,35.77
2023-07-09T08:15:49.832Z,35.90
2023-07-09T08:16:49.441Z,36.10
2023-07-09T08:17:49.312Z,36.27
2023-07-09T08:18:49.226Z,36.43
2023-07-09T08:19:49.061Z,36.57
2023-07-09T08:20:48.977Z,36.74
2023-07-09T08:21:48.905Z,36.86
2023-07-09T08:22:48.802Z,36.83
2023-07-09T08:23:48.698Z,36.59
2023-07-09T08:24:48.569Z,37.03
2023-07-09T08:25:48.446Z,37.18
2023-07-09T08:26:48.313Z,37.18
2023-07-09T08:27:48.173Z,37.42
2023-07-09T08:28:48.075Z,37.58
2023-07-09T08:29:47.940Z,37.76
2023-07-09T08:30:47.854Z,37.62
2023-07-09T08:31:47.714Z,37.52
2023-07-09T08:32:47.570Z,37.32
2023-07-09T08:33:47.397Z,37.51
2023-07-09T08:35:18.077Z,37.63
2023-07-09T08:35:47.059Z,37.93
2023-07-09T08:36:46.890Z,38.18
2023-07-09T08:37:46.727Z,38.24
2023-07-09T08:38:46.673Z,38.42
2023-07-09T08:39:46.386Z,38.62
2023-07-09T08:40:46.233Z,38.62
2023-07-09T08:41:46.028Z,38.78
2023-07-09T08:42:59.447Z,38.92
2023-07-09T08:43:45.704Z,38.99
2023-07-09T08:44:45.535Z,39.06
2023-07-09T08:45:45.451Z,39.14
2023-07-09T08:46:45.227Z,39.16
2023-07-09T08:47:45.129Z,39.28
2023-07-09T08:48:45.368Z,39.31
2023-07-09T08:49:44.690Z,39.45
2023-07-09T08:50:44.513Z,39.41
2023-07-09T08:51:44.322Z,39.52
2023-07-09T08:52:44.170Z,39.65
2023-07-09T08:53:43.966Z,39.69
2023-07-09T08:54:43.788Z,39.79
2023-07-09T08:55:43.602Z,39.72
2023-07-09T08:56:43.431Z,39.85
2023-07-09T08:57:43.281Z,39.51
2023-07-09T08:58:43.065Z,39.78
2023-07-09T08:59:42.893Z,39.65
2023-07-09T09:00:42.752Z,38.69
2023-07-09T09:01:42.538Z,37.89
2023-07-09T09:02:45.422Z,38.71
2023-07-09T09:03:42.216Z,38.97
2023-07-09T09:04:41.960Z,39.06
2023-07-09T09:05:41.850Z,39.23
2023-07-09T09:06:41.590Z,39.21
2023-07-09T09:07:41.400Z,39.40
2023-07-09T09:08:41.324Z,39.50
2023-07-09T09:09:41.024Z,39.36
2023-07-09T09:10:40.836Z,39.37
2023-07-09T09:11:40.641Z,39.71
2023-07-09T09:12:40.439Z,39.61
2023-07-09T09:13:40.333Z,39.36
2023-07-09T09:14:40.064Z,39.59
2023-07-09T09:15:39.892Z,39.71
2023-07-09T09:16:39.749Z,39.69
2023-07-09T09:17:39.659Z,39.78
2023-07-09T09:18:39.501Z,39.51
2023-07-09T09:19:39.280Z,39.45
2023-07-09T09:20:39.140Z,39.52
2023-07-09T09:21:38.976Z,39.62
2023-07-09T09:22:41.733Z,39.67
2023-07-09T09:23:38.683Z,39.76
2023-07-09T09:24:38.530Z,39.69
2023-07-09T09:25:38.335Z,39.73
2023-07-09T09:26:38.189Z,39.39
2023-07-09T09:27:38.020Z,39.41
2023-07-09T09:28:37.845Z,39.41
2023-07-09T09:29:37.724Z,39.13
2023-07-09T09:30:37.550Z,38.96
2023-07-09T09:31:37.457Z,38.63
2023-07-09T09:32:37.321Z,38.58
2023-07-09T09:33:37.121Z,38.52
2023-07-09T09:34:36.990Z,38.54
2023-07-09T09:35:36.806Z,38.63
2023-07-09T09:36:36.650Z,38.71
2023-07-09T09:37:36.486Z,38.66
2023-07-09T09:38:36.333Z,38.69
2023-07-09T09:39:36.179Z,38.69
2023-07-09T09:40:36.020Z,38.51
2023-07-09T09:41:35.867Z,38.17
2023-07-09T09:42:35.711Z,38.25
2023-07-09T09:43:35.574Z,38.32
2023-07-09T09:44:35.384Z,38.30
2023-07-09T09:45:35.260Z,38.32
2023-07-09T09:46:35.092Z,38.30
2023-07-09T09:47:35.190Z,38.31
2023-07-09T09:48:34.769Z,37.82
2023-07-09T09:49:34.576Z,38.10
2023-07-09T09:50:34.448Z,37.73
2023-07-09T09:51:34.254Z,37.77
2023-07-09T09:52:34.085Z,37.90
2023-07-09T09:53:34.015Z,37.49
2023-07-09T09:54:33.840Z,37.46
2023-07-09T09:55:33.699Z,37.46
2023-07-09T09:56:33.539Z,37.21
2023-07-09T09:57:33.396Z,37.20
2023-07-09T09:58:33.285Z,36.98
2023-07-09T09:59:33.158Z,37.01
2023-07-09T10:00:33.065Z,37.04
2023-07-09T10:01:33.006Z,37.00
2023-07-09T10:02:32.897Z,36.57
2023-07-09T10:03:32.770Z,36.70
2023-07-09T10:04:32.638Z,36.63
2023-07-09T10:05:32.566Z,36.40
2023-07-09T10:06:32.528Z,36.46
2023-07-09T10:07:32.427Z,36.43
2023-07-09T10:08:32.368Z,36.01
2023-07-09T10:09:32.239Z,36.11
2023-07-09T10:10:32.152Z,36.08
2023-07-09T10:11:32.102Z,35.80
2023-07-09T10:12:32.021Z,35.63
2023-07-09T10:13:32.092Z,35.56
2023-07-09T10:14:31.881Z,35.40
2023-07-09T10:15:31.838Z,34.90
2023-07-09T10:16:31.782Z,34.73
2023-07-09T10:17:31.787Z,34.44
2023-07-09T10:18:31.767Z,34.04
2023-07-09T10:19:31.688Z,34.09
2023-07-09T10:20:31.643Z,33.88
2023-07-09T10:21:31.708Z,33.85
2023-07-09T10:22:31.590Z,33.80
2023-07-09T10:23:31.522Z,33.77
2023-07-09T10:24:31.450Z,33.64
2023-07-09T10:25:31.419Z,33.42
2023-07-09T10:26:31.355Z,33.46
2023-07-09T10:27:31.321Z,33.20
2023-07-09T10:28:31.249Z,33.23
2023-07-09T10:29:31.190Z,33.01
2023-07-09T10:30:31.121Z,33.01
2023-07-09T10:31:31.160Z,32.98
2023-07-09T10:32:31.038Z,32.85
2023-07-09T10:33:30.967Z,32.83
2023-07-09T10:34:30.918Z,32.68
2023-07-09T10:35:32.071Z,32.79
2023-07-09T10:36:30.855Z,32.70
2023-07-09T10:37:31.128Z,32.71
2023-07-09T10:38:30.761Z,32.70
2023-07-09T10:39:30.676Z,32.67
2023-07-09T10:40:30.621Z,32.70
2023-07-09T10:41:30.940Z,32.47
2023-07-09T10:42:30.619Z,32.61
2023-07-09T10:43:32.135Z,32.43
2023-07-09T10:44:30.553Z,32.36
2023-07-09T10:45:30.471Z,32.37
2023-07-09T10:46:30.445Z,32.36
2023-07-09T10:47:30.376Z,32.36
2023-07-09T10:48:30.308Z,32.33
2023-07-09T10:49:30.207Z,32.40
2023-07-09T10:50:30.132Z,32.44
2023-07-09T10:51:30.074Z,32.54
2023-07-09T10:52:29.987Z,32.50
2023-07-09T10:53:29.941Z,32.60
2023-07-09T10:54:29.860Z,32.63
2023-07-09T10:55:29.766Z,32.64
2023-07-09T10:56:29.686Z,32.64
2023-07-09T10:57:29.597Z,32.75
2023-07-09T10:58:29.571Z,32.82
2023-07-09T10:59:29.463Z,32.97
2023-07-09T11:00:29.338Z,33.06
2023-07-09T11:01:29.293Z,32.98
2023-07-09T11:02:29.163Z,32.98
2023-07-09T11:03:29.244Z,33.05
2023-07-09T11:04:28.969Z,33.10
2023-07-09T11:05:28.899Z,33.10
2023-07-09T11:06:28.799Z,33.06
2023-07-09T11:07:28.720Z,33.10
2023-07-09T11:08:28.634Z,33.27
2023-07-09T11:09:28.529Z,33.32
2023-07-09T11:10:28.437Z,33.36
2023-07-09T11:11:28.318Z,33.37
2023-07-09T11:12:28.228Z,33.43
2023-07-09T11:13:42.576Z,33.53
2023-07-09T11:14:28.093Z,33.60
2023-07-09T11:15:27.911Z,33.56
2023-07-09T11:16:27.883Z,33.61
2023-07-09T11:17:27.714Z,33.70
2023-07-09T11:18:27.733Z,33.71
2023-07-09T11:19:27.519Z,33.72
2023-07-09T11:20:27.402Z,33.64
2023-07-09T11:21:27.312Z,33.57
2023-07-09T11:22:27.220Z,33.70
2023-07-09T11:23:27.164Z,33.78
2023-07-09T11:24:27.012Z,33.72
2023-07-09T11:25:26.902Z,33.84
2023-07-09T11:26:26.819Z,33.88
2023-07-09T11:27:26.684Z,33.91
2023-07-09T11:28:26.599Z,33.87
2023-07-09T11:29:26.479Z,33.72
2023-07-09T11:30:26.376Z,33.92
2023-07-09T11:31:26.626Z,33.81
2023-07-09T11:32:26.171Z,33.80
2023-07-09T11:33:26.057Z,33.68
2023-07-09T11:34:25.920Z,33.97
2023-07-09T11:35:25.794Z,33.94
2023-07-09T11:36:25.669Z,34.04
2023-07-09T11:37:25.573Z,34.12
2023-07-09T11:38:25.492Z,34.11
2023-07-09T11:39:25.365Z,34.09
2023-07-09T11:40:25.246Z,34.18
2023-07-09T11:41:25.146Z,34.23
2023-07-09T11:42:25.069Z,34.27
2023-07-09T11:43:24.934Z,34.33
2023-07-09T11:44:24.845Z,34.20
2023-07-09T11:45:24.725Z,34.08
2023-07-09T11:46:24.689Z,34.15
2023-07-09T11:47:24.534Z,34.01
2023-07-09T11:48:24.455Z,33.95
2023-07-09T11:49:24.366Z,33.77
2023-07-09T11:50:24.413Z,33.60
2023-07-09T11:51:24.221Z,33.57
2023-07-09T11:52:24.192Z,33.67
2023-07-09T11:53:24.149Z,33.63
2023-07-09T11:54:24.107Z,33.65
2023-07-09T11:55:23.039Z,33.78
2023-07-09T11:56:24.004Z,33.81
2023-07-09T11:57:23.930Z,33.80
2023-07-09T11:58:23.867Z,33.99
2023-07-09T11:59:23.761Z,34.01
2023-07-09T12:00:23.669Z,34.04
2023-07-09T12:01:23.602Z,34.04
2023-07-09T12:02:23.500Z,34.14
2023-07-09T12:03:23.486Z,34.05
2023-07-09T12:04:23.456Z,34.02
2023-07-09T12:05:23.343Z,34.14
2023-07-09T12:06:23.258Z,34.04
2023-07-09T12:07:23.209Z,34.02
2023-07-09T12:08:23.172Z,34.04
2023-07-09T12:09:23.141Z,34.18
2023-07-09T12:10:23.078Z,34.18
2023-07-09T12:11:23.035Z,34.02
2023-07-09T12:12:22.981Z,33.95
2023-07-09T12:13:22.895Z,34.05
2023-07-09T12:14:22.920Z,34.09
2023-07-09T12:15:22.808Z,33.98
2023-07-09T12:16:22.834Z,34.01
2023-07-09T12:17:22.732Z,34.09
2023-07-09T12:18:22.567Z,34.12
2023-07-09T12:19:22.507Z,33.97
2023-07-09T12:20:22.387Z,34.04
2023-07-09T12:21:22.318Z,34.16
2023-07-09T12:22:22.294Z,34.18
2023-07-09T12:23:22.200Z,34.22
2023-07-09T12:24:22.144Z,34.18
2023-07-09T12:25:22.065Z,34.29
2023-07-09T12:26:21.999Z,34.20
2023-07-09T12:27:21.891Z,34.27
2023-07-09T12:28:21.810Z,34.32
2023-07-09T12:29:21.744Z,34.32
2023-07-09T12:30:21.645Z,34.11
2023-07-09T12:31:21.554Z,34.30
2023-07-09T12:32:21.509Z,34.36
2023-07-09T12:33:21.396Z,34.29
2023-07-09T12:34:21.335Z,34.30
2023-07-09T12:35:21.256Z,34.29
2023-07-09T12:36:21.176Z,34.36
2023-07-09T12:37:21.120Z,34.36
2023-07-09T12:38:21.024Z,34.32
2023-07-09T12:39:20.935Z,34.36
2023-07-09T12:40:20.854Z,34.26
2023-07-09T12:41:20.799Z,34.40
2023-07-09T12:42:20.735Z,34.43
2023-07-09T12:43:20.653Z,34.42
2023-07-09T12:44:20.591Z,34.40
2023-07-09T12:45:20.534Z,34.35
2023-07-09T12:46:20.514Z,34.33
2023-07-09T12:47:20.477Z,34.36
2023-07-09T12:48:20.315Z,34.36
2023-07-09T12:49:20.254Z,34.36
2023-07-09T12:50:20.212Z,34.04
2023-07-09T12:51:20.156Z,34.18
2023-07-09T12:52:20.114Z,34.05